ZBTJ/TSN METAR and TAF weather

Enter ICAO airport designator
Station Type Date Time Source
ZBTJ METAR 2022/11/27 07:30 UTC NOAA

ZBTJ 270730Z 33002MPS 5000 -RA BR BKN010 OVC026 03/01 Q1013 NOSIG


Station Type Date Time Source
ZBTJ Decoded METAR 2022/11/27 07:30 UTC NOAA

Tianjin / Zhangguizhu, China (ZBTJ) 39-11N 117-21E
Nov 27, 2022 - 02:30 AM EST / 2022.11.27 0730 UTC
Wind: from the NNW (330 degrees) at 4 MPH (4 KT):0
Visibility: 3 mile(s):0
Sky conditions: overcast
Weather: light rain; mist
Temperature: 37 F (3 C)
Dew Point: 33 F (1 C)
Relative Humidity: 86%
Pressure (altimeter): 29.91 in. Hg (1013 hPa)
ob: ZBTJ 270730Z 33002MPS 5000 -RA BR BKN010 OVC026 03/01 Q1013 NOSIG
cycle: 7

Station Type Date Time Source
ZBTJ TAF 2022/11/27 06:03 UTC NOAA

TAF ZBTJ 270301Z 2706/2806 35003MPS 6000 OVC033 TX11/2806Z TN04/2800Z
BECMG 2714/2715 3000 -RA BR
BECMG 2718/2719 BR

Example: see airport list